Time;durP1;ratioP1;P1;durP2;ratioP2;P2;SDS_P1;SDS_P2;PMS_P1;PMS_P2;Temp;Humidity;BMP_temperature;BMP_pressure;BME280_temperature;BME280_humidity;BME280_pressure;Samples;Min_cycle;Max_cycle;Signal;HPM_P1;HPM_P2
2023/03/23 00:02:25;;;;;;;38.77;6.53;;;17.70;63.10;;;;;;5054505;28;20237;-92
2023/03/23 00:04:54;;;;;;;35.70;6.13;;;17.70;63.20;;;;;;5065666;28;20237;-91
2023/03/23 00:07:21;;;;;;;40.00;6.37;;;17.70;63.20;;;;;;5065096;28;20213;-91
2023/03/23 00:09:52;;;;;;;35.03;5.80;;;17.80;63.40;;;;;;5067896;28;20745;-91
2023/03/23 00:12:21;;;;;;;31.87;5.40;;;17.70;63.30;;;;;;5067235;28;20298;-92
2023/03/23 00:14:53;;;;;;;36.40;5.83;;;17.60;63.20;;;;;;5067744;28;20232;-91
2023/03/23 00:17:20;;;;;;;36.83;6.13;;;17.70;63.10;;;;;;5062062;28;20523;-93
2023/03/23 00:19:57;;;;;;;44.73;6.50;;;17.70;63.20;;;;;;5066402;28;20271;-93
2023/03/23 00:22:24;;;;;;;39.30;6.20;;;17.70;63.10;;;;;;5067410;28;20206;-92
2023/03/23 00:24:52;;;;;;;33.33;6.20;;;17.60;63.10;;;;;;5066899;28;20240;-91
2023/03/23 00:27:21;;;;;;;35.80;6.13;;;17.60;63.10;;;;;;5063916;28;20222;-93
2023/03/23 00:29:52;;;;;;;37.40;6.20;;;17.60;63.10;;;;;;5071675;28;20676;-92
2023/03/23 00:32:28;;;;;;;53.47;7.17;;;17.70;63.20;;;;;;5054254;28;20238;-92
2023/03/23 00:34:58;;;;;;;32.80;6.10;;;17.70;63.20;;;;;;5071209;28;20326;-92
2023/03/23 00:37:25;;;;;;;33.13;5.93;;;17.60;63.10;;;;;;5069845;28;20232;-92
2023/03/23 00:39:56;;;;;;;35.60;6.07;;;17.60;63.10;;;;;;5070751;28;20638;-92
2023/03/23 00:42:24;;;;;;;35.07;5.90;;;17.70;63.20;;;;;;5070758;28;20213;-92
2023/03/23 00:45:00;;;;;;;47.43;6.70;;;17.70;63.20;;;;;;5067143;28;20208;-92
2023/03/23 00:47:28;;;;;;;38.03;5.93;;;17.60;63.10;;;;;;5068949;28;20193;-92
2023/03/23 00:49:56;;;;;;;60.53;7.93;;;17.60;63.10;;;;;;5070516;28;20205;-92
2023/03/23 00:52:23;;;;;;;41.83;6.40;;;17.60;63.10;;;;;;5072266;28;20629;-92
2023/03/23 00:54:50;;;;;;;38.87;6.33;;;17.60;63.10;;;;;;5070934;28;20277;-92
2023/03/23 00:57:18;;;;;;;38.27;6.07;;;17.60;63.90;;;;;;5066008;28;20211;-93
2023/03/23 00:59:45;;;;;;;35.37;6.57;;;17.70;63.20;;;;;;5060477;28;20203;-93
2023/03/23 01:02:13;;;;;;;37.50;6.00;;;17.70;63.20;;;;;;5068827;28;20228;-92
2023/03/23 01:04:44;;;;;;;36.47;6.23;;;17.60;63.10;;;;;;5069484;28;20300;-90
2023/03/23 01:07:30;;;;;;;39.37;6.13;;;17.60;63.10;;;;;;5068137;28;20236;-92
2023/03/23 01:10:00;;;;;;;43.10;6.50;;;17.60;63.10;;;;;;5068627;28;20871;-91
2023/03/23 01:12:27;;;;;;;54.87;7.70;;;17.60;63.10;;;;;;5071353;28;20200;-91
2023/03/23 01:14:54;;;;;;;30.13;5.43;;;17.60;63.20;;;;;;5070069;28;20730;-91
2023/03/23 01:17:49;;;;;;;36.23;6.13;;;17.70;64.10;;;;;;5071119;28;20205;-91
2023/03/23 01:20:20;;;;;;;39.40;6.07;;;17.60;63.10;;;;;;5050182;28;20689;-92
2023/03/23 01:22:49;;;;;;;41.70;6.63;;;17.60;63.10;;;;;;5070801;28;20289;-92
2023/03/23 01:25:16;;;;;;;34.57;5.70;;;17.60;63.10;;;;;;5070174;28;20284;-91
2023/03/23 01:27:43;;;;;;;36.90;6.03;;;17.60;63.10;;;;;;5071104;28;20208;-93
2023/03/23 01:30:13;;;;;;;49.03;6.87;;;17.60;63.10;;;;;;5058075;28;20202;-92
2023/03/23 01:32:40;;;;;;;32.57;5.40;;;17.60;63.20;;;;;;5070687;28;20571;-91
2023/03/23 01:35:08;;;;;;;57.20;7.67;;;17.70;63.30;;;;;;5068785;28;20765;-92
2023/03/23 01:37:42;;;;;;;58.33;7.97;;;17.60;64.00;;;;;;5069920;28;20212;-91
2023/03/23 01:40:10;;;;;;;37.27;6.13;;;17.60;63.10;;;;;;5068278;28;20235;-91
2023/03/23 01:42:39;;;;;;;37.60;6.33;;;17.70;63.20;;;;;;5069657;28;20207;-92
2023/03/23 01:45:28;;;;;;;42.20;6.13;;;17.70;63.20;;;;;;5069507;28;20307;-91
2023/03/23 01:48:04;;;;;;;32.27;5.87;;;17.60;63.10;;;;;;5063688;28;20215;-91
2023/03/23 01:50:35;;;;;;;28.17;5.10;;;17.60;63.10;;;;;;5068329;28;20200;-91
2023/03/23 01:53:08;;;;;;;34.93;6.03;;;17.60;63.10;;;;;;5069536;28;20678;-91
2023/03/23 01:55:40;;;;;;;37.27;5.63;;;17.60;63.10;;;;;;5069690;28;20251;-91
2023/03/23 01:58:07;;;;;;;47.37;7.07;;;17.60;63.10;;;;;;5067292;28;20255;-91
2023/03/23 02:00:35;;;;;;;46.20;6.63;;;17.60;63.10;;;;;;5069689;28;20292;-91
2023/03/23 02:03:03;;;;;;;31.37;5.97;;;17.60;63.10;;;;;;5070387;28;20250;-91
2023/03/23 02:05:33;;;;;;;31.33;5.90;;;17.60;63.10;;;;;;5069168;28;20217;-92
2023/03/23 02:08:03;;;;;;;51.93;7.23;;;17.60;63.20;;;;;;5069114;28;20706;-91
2023/03/23 02:10:34;;;;;;;67.60;8.37;;;17.60;63.10;;;;;;5065994;28;20258;-92
2023/03/23 02:13:04;;;;;;;32.40;5.73;;;17.60;63.10;;;;;;5068843;28;20195;-91
2023/03/23 02:15:40;;;;;;;32.80;5.90;;;17.70;63.20;;;;;;5069720;28;20234;-92
2023/03/23 02:18:15;;;;;;;33.23;5.80;;;17.60;63.20;;;;;;5065892;28;20210;-91
2023/03/23 02:21:21;;;;;;;41.10;6.30;;;17.60;63.10;;;;;;5064917;28;20260;-91
2023/03/23 02:24:14;;;;;;;45.07;6.63;;;17.60;63.10;;;;;;5066884;28;20278;-91
2023/03/23 02:26:51;;;;;;;39.17;6.50;;;17.60;63.20;;;;;;5085982;28;20284;-91
2023/03/23 02:30:01;;;;;;;35.97;6.27;;;17.60;63.10;;;;;;5060766;28;20207;-91
2023/03/23 02:32:55;;;;;;;30.80;5.70;;;17.60;63.10;;;;;;5067687;28;20223;-91
2023/03/23 02:35:29;;;;;;;38.30;6.23;;;17.60;63.10;;;;;;5066712;28;20742;-92
2023/03/23 02:38:00;;;;;;;44.10;6.67;;;17.60;63.10;;;;;;5065056;28;20202;-93
2023/03/23 02:40:33;;;;;;;32.53;5.73;;;17.60;63.10;;;;;;5067260;28;20584;-92
2023/03/23 02:43:10;;;;;;;35.40;5.73;;;17.60;63.10;;;;;;5069542;28;20203;-92
2023/03/23 02:45:39;;;;;;;39.37;6.87;;;17.60;63.10;;;;;;5069559;28;20201;-91
2023/03/23 02:48:09;;;;;;;40.17;6.00;;;17.60;63.20;;;;;;5069888;28;20219;-92
2023/03/23 02:50:48;;;;;;;54.30;7.43;;;17.60;63.20;;;;;;5068521;28;20203;-91
2023/03/23 02:53:20;;;;;;;51.27;7.17;;;17.60;63.10;;;;;;5068878;28;20300;-91
2023/03/23 02:55:48;;;;;;;44.13;6.80;;;17.60;63.10;;;;;;5069813;28;20368;-92
2023/03/23 02:58:15;;;;;;;45.43;6.40;;;17.70;63.20;;;;;;5069899;28;20648;-92
2023/03/23 03:00:43;;;;;;;60.87;8.23;;;17.60;63.10;;;;;;5066974;28;20206;-92
2023/03/23 03:03:14;;;;;;;32.07;5.73;;;17.60;63.10;;;;;;5069771;28;20222;-91
2023/03/23 03:05:50;;;;;;;28.60;5.43;;;17.60;63.10;;;;;;5069713;28;20221;-92
2023/03/23 03:08:31;;;;;;;52.87;7.37;;;17.60;63.20;;;;;;5067697;28;20210;-91
2023/03/23 03:11:03;;;;;;;60.90;8.10;;;17.60;63.10;;;;;;5064057;28;20272;-92
2023/03/23 03:13:40;;;;;;;36.67;6.50;;;17.60;63.10;;;;;;5062406;28;20315;-92
2023/03/23 03:16:12;;;;;;;35.63;6.20;;;17.60;63.10;;;;;;5067662;28;20237;-92
2023/03/23 03:18:43;;;;;;;44.57;6.90;;;17.60;63.10;;;;;;5064012;28;20198;-91
2023/03/23 03:21:14;;;;;;;35.87;6.27;;;17.60;63.10;;;;;;5064193;28;20222;-90
2023/03/23 03:23:49;;;;;;;49.70;7.27;;;17.50;63.00;;;;;;5059981;28;20211;-91
2023/03/23 03:26:20;;;;;;;56.83;8.23;;;17.60;63.20;;;;;;5071733;28;20670;-90
2023/03/23 03:28:50;;;;;;;52.37;7.47;;;17.60;63.10;;;;;;5074389;28;20207;-91
2023/03/23 03:31:19;;;;;;;35.83;6.27;;;17.60;63.10;;;;;;5052758;28;20289;-92
2023/03/23 03:33:55;;;;;;;47.13;7.17;;;17.60;63.10;;;;;;5050230;28;20199;-92
2023/03/23 03:36:27;;;;;;;36.30;6.40;;;17.60;63.10;;;;;;5061717;28;20230;-91
2023/03/23 03:38:57;;;;;;;74.23;9.47;;;17.60;63.20;;;;;;5065225;28;20206;-91
2023/03/23 03:41:24;;;;;;;36.20;6.47;;;17.60;63.20;;;;;;5059322;28;20203;-92
2023/03/23 03:43:51;;;;;;;32.97;5.93;;;17.60;63.10;;;;;;5066571;28;20213;-91
2023/03/23 03:46:17;;;;;;;39.90;6.57;;;17.60;63.20;;;;;;5067545;28;20209;-90
2023/03/23 03:48:44;;;;;;;49.27;6.97;;;17.60;63.10;;;;;;5073236;28;20244;-91
2023/03/23 03:51:11;;;;;;;35.77;6.23;;;17.60;63.20;;;;;;5077178;28;20262;-91
2023/03/23 03:53:40;;;;;;;39.23;6.33;;;17.60;63.10;;;;;;5072500;28;20282;-91
2023/03/23 03:56:07;;;;;;;43.90;6.23;;;17.60;63.20;;;;;;5068016;28;20302;-91
2023/03/23 03:58:35;;;;;;;32.97;5.83;;;17.60;63.10;;;;;;5068832;28;20205;-92
2023/03/23 04:01:03;;;;;;;42.13;6.50;;;17.60;63.20;;;;;;5069406;28;20217;-93
2023/03/23 04:03:30;;;;;;;35.03;6.17;;;17.60;63.20;;;;;;5067034;28;20207;-92
2023/03/23 04:05:59;;;;;;;42.30;6.63;;;17.60;63.10;;;;;;5068767;28;20234;-92
2023/03/23 04:08:26;;;;;;;30.33;5.47;;;17.50;63.00;;;;;;5067557;28;20267;-92
2023/03/23 04:10:55;;;;;;;29.27;6.00;;;17.50;63.10;;;;;;5066147;28;20198;-92
2023/03/23 04:16:20;;;;;;;45.57;7.17;;;17.60;63.10;;;;;;5065148;28;20241;-91
2023/03/23 04:18:48;;;;;;;41.07;6.77;;;17.60;63.10;;;;;;5068065;28;20290;-93
2023/03/23 04:21:16;;;;;;;53.83;7.67;;;17.50;63.00;;;;;;5063400;28;20320;-92
2023/03/23 04:23:43;;;;;;;36.30;6.27;;;17.50;63.00;;;;;;5068184;28;20203;-91
2023/03/23 04:26:29;;;;;;;35.40;6.40;;;17.50;63.00;;;;;;5066310;28;20223;-92
2023/03/23 04:28:56;;;;;;;36.57;5.70;;;17.50;63.00;;;;;;5067264;28;20258;-93
2023/03/23 04:31:25;;;;;;;34.03;5.70;;;17.50;63.00;;;;;;5065567;28;20207;-91
2023/03/23 04:33:52;;;;;;;36.20;5.97;;;17.50;63.00;;;;;;5067188;28;20201;-91
2023/03/23 04:36:23;;;;;;;38.87;5.93;;;17.50;63.00;;;;;;5066419;28;20231;-91
2023/03/23 04:38:56;;;;;;;51.00;7.40;;;17.50;63.00;;;;;;5056579;28;20280;-91
2023/03/23 04:41:25;;;;;;;41.60;6.50;;;17.50;63.10;;;;;;5064807;28;20783;-92
2023/03/23 04:43:53;;;;;;;38.07;6.77;;;17.50;63.80;;;;;;5067497;28;20221;-92
2023/03/23 04:46:21;;;;;;;39.83;6.43;;;17.50;63.00;;;;;;5066593;28;20198;-91
2023/03/23 04:48:48;;;;;;;52.77;7.23;;;17.50;63.10;;;;;;5066402;28;20640;-92
2023/03/23 04:51:15;;;;;;;35.73;6.47;;;17.50;63.10;;;;;;5075438;28;20202;-92
2023/03/23 04:53:42;;;;;;;31.30;6.20;;;17.50;63.00;;;;;;5088721;28;20231;-94
2023/03/23 04:56:09;;;;;;;39.83;6.90;;;17.50;63.10;;;;;;5082206;28;20238;-93
2023/03/23 04:58:39;;;;;;;43.27;6.80;;;17.50;63.10;;;;;;5067945;28;20321;-93
2023/03/23 05:01:06;;;;;;;63.80;8.27;;;17.50;63.10;;;;;;5066785;28;20214;-92
2023/03/23 05:03:34;;;;;;;40.07;6.57;;;17.50;63.10;;;;;;5067062;28;20214;-94
2023/03/23 05:06:14;;;;;;;31.70;6.23;;;17.50;63.10;;;;;;5064412;28;20214;-92
2023/03/23 05:08:42;;;;;;;30.13;5.87;;;17.50;63.10;;;;;;5067612;28;20742;-94
2023/03/23 05:11:09;;;;;;;63.47;8.47;;;17.50;63.10;;;;;;5065889;28;20235;-93
2023/03/23 05:13:38;;;;;;;44.80;7.00;;;17.50;63.10;;;;;;5065561;28;20235;-92
2023/03/23 05:16:06;;;;;;;47.63;6.77;;;17.50;63.10;;;;;;5066644;28;20254;-93
2023/03/23 05:18:33;;;;;;;52.37;6.80;;;17.50;63.10;;;;;;5077514;28;20199;-92
2023/03/23 05:21:01;;;;;;;33.43;6.60;;;17.50;63.10;;;;;;5071202;28;20223;-92
2023/03/23 05:23:37;;;;;;;43.33;6.77;;;17.60;63.30;;;;;;5069781;28;20206;-92
2023/03/23 05:26:04;;;;;;;39.77;6.57;;;17.60;63.40;;;;;;5055555;28;20199;-91
2023/03/23 05:28:37;;;;;;;31.70;6.07;;;17.50;63.20;;;;;;5069048;28;20221;-93
2023/03/23 05:31:05;;;;;;;49.53;7.13;;;17.60;63.20;;;;;;5067802;28;20207;-92
2023/03/23 05:33:32;;;;;;;45.57;7.30;;;17.60;63.20;;;;;;5071184;28;20894;-91
2023/03/23 05:36:00;;;;;;;54.10;8.37;;;17.60;63.20;;;;;;5067835;28;20202;-92
2023/03/23 05:38:27;;;;;;;39.40;6.73;;;17.60;63.20;;;;;;5069703;28;20302;-91
2023/03/23 05:40:54;;;;;;;39.97;6.53;;;17.50;63.10;;;;;;5067557;28;20257;-92
2023/03/23 05:43:28;;;;;;;46.53;7.40;;;17.50;63.10;;;;;;5071042;28;20238;-93
2023/03/23 05:45:57;;;;;;;40.87;6.60;;;17.50;63.10;;;;;;5070329;28;20290;-92
2023/03/23 05:48:27;;;;;;;46.97;6.97;;;17.60;63.20;;;;;;5069830;28;20206;-90
2023/03/23 05:50:54;;;;;;;29.27;5.53;;;17.50;63.10;;;;;;5067020;28;20209;-92
2023/03/23 05:53:21;;;;;;;47.00;7.10;;;17.60;63.20;;;;;;5069141;28;20549;-92
2023/03/23 05:55:49;;;;;;;46.77;7.70;;;17.60;63.20;;;;;;5070258;28;20207;-92
2023/03/23 05:58:16;;;;;;;56.37;7.60;;;17.60;63.20;;;;;;5071007;28;20286;-92
2023/03/23 06:00:43;;;;;;;45.97;6.67;;;17.60;63.20;;;;;;5069099;28;20293;-92
2023/03/23 06:03:12;;;;;;;39.80;6.47;;;17.60;63.20;;;;;;5067605;28;20231;-92
2023/03/23 06:05:43;;;;;;;54.83;7.80;;;17.50;63.10;;;;;;5053036;28;20212;-93
2023/03/23 06:08:11;;;;;;;50.60;7.10;;;17.60;63.20;;;;;;5070393;28;20739;-92
2023/03/23 06:10:38;;;;;;;50.23;7.27;;;17.60;63.20;;;;;;5068435;28;20203;-91
2023/03/23 06:13:05;;;;;;;42.63;6.80;;;17.60;63.10;;;;;;5066146;28;20203;-91
2023/03/23 06:15:33;;;;;;;32.93;5.73;;;17.60;63.20;;;;;;5068112;28;20232;-91
2023/03/23 06:18:00;;;;;;;37.63;6.47;;;17.60;63.20;;;;;;5067778;28;20266;-93
2023/03/23 06:20:28;;;;;;;40.10;6.07;;;17.60;63.20;;;;;;5067281;28;20271;-92
2023/03/23 06:22:56;;;;;;;42.50;7.30;;;17.50;63.10;;;;;;5068920;28;20215;-92
2023/03/23 06:25:54;;;;;;;44.97;6.90;;;17.60;63.20;;;;;;5068440;28;20200;-91
2023/03/23 06:28:27;;;;;;;31.47;5.77;;;17.60;63.20;;;;;;5068162;28;20779;-93
2023/03/23 06:30:54;;;;;;;46.87;6.80;;;17.60;63.10;;;;;;5066401;28;20210;-91
2023/03/23 06:33:21;;;;;;;35.33;5.93;;;17.60;63.20;;;;;;5067472;28;20213;-92
2023/03/23 06:35:51;;;;;;;32.47;5.80;;;17.50;63.00;;;;;;5068796;28;20722;-92
2023/03/23 06:38:18;;;;;;;40.57;6.47;;;17.50;63.00;;;;;;5055410;28;20255;-92
2023/03/23 06:40:46;;;;;;;28.13;5.30;;;17.50;63.00;;;;;;5056735;28;20217;-92
2023/03/23 06:43:14;;;;;;;49.53;7.30;;;17.60;63.20;;;;;;5070213;28;20737;-92
2023/03/23 06:45:41;;;;;;;32.50;5.90;;;17.60;63.10;;;;;;5070394;28;20209;-92
2023/03/23 06:48:08;;;;;;;35.50;6.27;;;17.50;63.00;;;;;;5069977;28;20209;-92
2023/03/23 06:50:35;;;;;;;36.10;5.97;;;17.50;63.10;;;;;;5070156;28;20213;-92
2023/03/23 06:53:05;;;;;;;36.80;6.47;;;17.50;63.00;;;;;;5068782;28;20672;-94
2023/03/23 06:55:32;;;;;;;33.10;6.00;;;17.60;63.10;;;;;;5069020;28;20198;-91
2023/03/23 06:58:01;;;;;;;43.97;6.77;;;17.50;63.10;;;;;;5069548;28;20241;-92
2023/03/23 07:00:29;;;;;;;49.43;7.00;;;17.50;63.10;;;;;;5070651;28;20197;-92
2023/03/23 07:02:56;;;;;;;45.37;7.43;;;17.50;63.10;;;;;;5068412;28;20651;-94
2023/03/23 07:05:23;;;;;;;41.67;6.37;;;17.50;63.10;;;;;;5069730;28;20204;-93
2023/03/23 07:07:50;;;;;;;45.57;6.63;;;17.50;63.00;;;;;;5087708;28;20672;-96
2023/03/23 07:10:19;;;;;;;33.87;6.37;;;17.50;63.00;;;;;;5073163;28;20207;-92
2023/03/23 07:12:46;;;;;;;57.00;7.13;;;17.50;63.00;;;;;;5069908;28;20210;-93
2023/03/23 07:15:13;;;;;;;43.70;6.40;;;17.50;63.00;;;;;;5068172;28;20701;-95
2023/03/23 07:17:41;;;;;;;41.30;6.57;;;17.50;63.00;;;;;;5070276;28;20230;-91
2023/03/23 07:20:10;;;;;;;45.63;7.27;;;17.50;63.00;;;;;;5074464;28;20608;-93
2023/03/23 07:22:38;;;;;;;28.13;5.70;;;17.50;63.00;;;;;;5084947;28;20300;-94
2023/03/23 07:25:05;;;;;;;69.17;8.53;;;17.50;63.00;;;;;;5067476;28;20205;-95
2023/03/23 07:27:37;;;;;;;26.50;4.90;;;17.50;63.10;;;;;;5077468;28;20306;-96
2023/03/23 07:30:07;;;;;;;40.17;6.93;;;17.50;63.00;;;;;;5075354;28;20230;-93
2023/03/23 07:32:34;;;;;;;54.07;8.27;;;17.50;63.00;;;;;;5069959;28;20664;-94
2023/03/23 07:35:03;;;;;;;77.10;10.97;;;17.50;63.00;;;;;;5068547;28;20605;-93
2023/03/23 07:37:32;;;;;;;83.13;11.37;;;17.40;63.00;;;;;;5067080;28;20247;-96
2023/03/23 07:40:00;;;;;;;39.93;7.77;;;17.50;63.10;;;;;;5069700;28;20201;-92
2023/03/23 07:42:27;;;;;;;52.43;8.03;;;17.50;63.10;;;;;;5066409;28;20203;-92
2023/03/23 07:44:56;;;;;;;39.50;6.73;;;17.50;63.10;;;;;;5066680;28;20207;-92
2023/03/23 07:47:23;;;;;;;36.03;6.93;;;17.40;62.90;;;;;;5060629;28;20204;-93
2023/03/23 07:49:50;;;;;;;40.53;6.83;;;17.50;63.00;;;;;;5069521;28;20301;-93
2023/03/23 07:52:17;;;;;;;37.33;6.33;;;17.40;63.00;;;;;;5068905;28;20561;-93
2023/03/23 07:54:44;;;;;;;36.23;6.77;;;17.40;62.90;;;;;;5067141;28;20274;-92
2023/03/23 07:57:12;;;;;;;51.43;8.50;;;17.40;63.00;;;;;;5068543;28;20314;-93
2023/03/23 07:59:39;;;;;;;36.67;6.83;;;17.40;63.00;;;;;;5069097;28;20208;-94
2023/03/23 08:02:09;;;;;;;33.17;6.30;;;17.60;63.10;;;;;;5068514;28;20249;-94
2023/03/23 08:04:38;;;;;;;42.37;7.03;;;17.40;63.00;;;;;;5090153;28;20205;-92
2023/03/23 08:07:05;;;;;;;58.77;8.53;;;17.40;63.00;;;;;;5070103;28;20216;-89
2023/03/23 08:09:32;;;;;;;49.40;7.17;;;17.40;62.90;;;;;;5068584;28;20239;-92
2023/03/23 08:11:59;;;;;;;40.47;6.67;;;17.40;62.90;;;;;;5062383;28;20204;-92
2023/03/23 08:14:28;;;;;;;63.83;8.70;;;17.40;62.90;;;;;;5060677;28;20226;-95
2023/03/23 08:16:55;;;;;;;35.30;6.17;;;17.40;63.00;;;;;;5068756;28;20192;-93
2023/03/23 08:19:24;;;;;;;52.70;7.77;;;17.50;63.10;;;;;;5070222;28;20206;-95
2023/03/23 08:21:53;;;;;;;39.97;6.70;;;17.50;63.00;;;;;;5070097;28;20310;-95
2023/03/23 08:24:40;;;;;;;59.77;8.87;;;17.40;62.90;;;;;;5068641;28;20202;-94
2023/03/23 08:27:22;;;;;;;43.07;6.50;;;17.40;62.90;;;;;;5068279;28;20208;-94
2023/03/23 08:29:51;;;;;;;45.53;7.20;;;17.40;62.90;;;;;;5068790;28;20284;-95
2023/03/23 08:32:32;;;;;;;48.23;7.60;;;17.50;63.00;;;;;;5068013;28;20245;-94
2023/03/23 08:35:01;;;;;;;44.47;6.93;;;17.50;63.00;;;;;;5068460;28;20213;-94
2023/03/23 08:37:29;;;;;;;40.67;6.97;;;17.40;62.90;;;;;;5068069;28;20233;-95
2023/03/23 08:39:58;;;;;;;43.67;6.90;;;17.40;62.90;;;;;;5068452;28;20202;-94
2023/03/23 08:42:25;;;;;;;34.40;7.13;;;17.50;63.00;;;;;;5068238;28;20268;-94
2023/03/23 08:44:52;;;;;;;51.50;7.87;;;17.40;62.90;;;;;;5069119;28;20804;-95
2023/03/23 08:47:19;;;;;;;32.47;6.00;;;17.40;62.90;;;;;;5069761;28;20292;-94
2023/03/23 08:49:52;;;;;;;43.17;6.77;;;17.40;62.90;;;;;;5071755;28;20241;-95
2023/03/23 08:52:28;;;;;;;67.97;8.60;;;17.50;63.10;;;;;;5073163;28;20665;-94
2023/03/23 08:55:31;;;;;;;37.07;6.73;;;17.60;63.20;;;;;;5073387;28;20252;-94
2023/03/23 08:58:16;;;;;;;40.47;6.47;;;17.60;63.20;;;;;;5068697;28;20264;-95
2023/03/23 09:00:43;;;;;;;52.00;7.50;;;17.50;63.10;;;;;;5073355;28;20668;-94
2023/03/23 09:03:13;;;;;;;38.43;6.33;;;17.50;63.10;;;;;;5073290;28;20224;-95
2023/03/23 09:05:45;;;;;;;38.47;6.13;;;17.50;63.10;;;;;;5073040;28;20663;-94
2023/03/23 09:08:14;;;;;;;30.47;5.83;;;17.50;63.10;;;;;;5073553;28;20234;-95
2023/03/23 09:10:41;;;;;;;44.33;6.63;;;17.50;63.20;;;;;;5073050;28;20208;-94
2023/03/23 09:13:08;;;;;;;50.47;7.53;;;17.50;63.10;;;;;;5067293;28;20651;-94
2023/03/23 09:15:36;;;;;;;41.57;6.43;;;17.50;63.10;;;;;;5071677;28;20207;-94
2023/03/23 09:18:04;;;;;;;31.23;6.27;;;17.50;63.10;;;;;;5071910;28;20248;-95
2023/03/23 09:20:32;;;;;;;38.37;7.27;;;17.50;63.20;;;;;;5071903;28;20231;-94
2023/03/23 09:22:59;;;;;;;34.83;5.93;;;17.60;63.40;;;;;;5071648;28;20217;-94
2023/03/23 09:25:32;;;;;;;50.30;7.50;;;17.60;63.40;;;;;;5071892;28;20222;-95
2023/03/23 09:28:00;;;;;;;39.17;6.97;;;17.60;63.40;;;;;;5072987;28;20217;-94
2023/03/23 09:30:28;;;;;;;38.90;6.43;;;17.60;63.40;;;;;;5071679;28;20211;-94
2023/03/23 09:32:56;;;;;;;30.33;6.30;;;17.60;63.40;;;;;;5066966;28;20295;-94
2023/03/23 09:35:24;;;;;;;39.03;6.77;;;17.60;63.40;;;;;;5071910;28;20289;-95
2023/03/23 09:37:53;;;;;;;35.83;5.97;;;17.60;63.40;;;;;;5070798;28;20223;-94
2023/03/23 09:40:23;;;;;;;46.33;6.83;;;17.60;63.50;;;;;;5071650;28;20553;-94
2023/03/23 09:43:09;;;;;;;29.37;5.60;;;17.60;63.40;;;;;;5072501;28;20715;-95
2023/03/23 09:45:43;;;;;;;33.47;6.20;;;17.70;63.60;;;;;;5072081;28;20206;-95
2023/03/23 09:48:37;;;;;;;48.33;7.03;;;17.60;63.40;;;;;;5071024;28;20211;-94
2023/03/23 09:51:13;;;;;;;34.70;5.97;;;17.70;63.60;;;;;;5071548;28;20213;-94
2023/03/23 09:53:44;;;;;;;30.93;5.60;;;17.60;63.40;;;;;;5070810;28;20203;-94
2023/03/23 09:56:14;;;;;;;36.77;6.30;;;17.70;63.50;;;;;;5070403;28;20573;-95
2023/03/23 09:58:50;;;;;;;35.93;6.23;;;17.80;63.60;;;;;;5071872;28;20282;-94
2023/03/23 10:01:23;;;;;;;33.30;5.77;;;17.70;63.60;;;;;;5069482;28;20237;-94
2023/03/23 10:03:53;;;;;;;48.23;6.73;;;17.80;63.60;;;;;;5070048;28;20317;-95
2023/03/23 10:06:20;;;;;;;31.07;5.60;;;17.70;63.50;;;;;;5071398;28;20275;-94
2023/03/23 10:08:53;;;;;;;41.17;6.63;;;17.70;63.50;;;;;;5064215;28;20252;-95
2023/03/23 10:11:32;;;;;;;30.07;5.83;;;17.80;63.60;;;;;;5070326;28;20208;-94
2023/03/23 10:14:14;;;;;;;39.33;6.63;;;17.80;63.60;;;;;;5089150;22;20324;-95
2023/03/23 10:16:46;;;;;;;42.37;6.70;;;17.80;63.70;;;;;;5091087;28;20203;-94
2023/03/23 10:19:20;;;;;;;39.27;6.67;;;17.80;63.50;;;;;;5089772;28;20325;-94
2023/03/23 10:24:48;;;;;;;35.23;6.33;;;17.80;63.50;;;;;;5088565;28;20705;-95
2023/03/23 10:27:26;;;;;;;47.43;7.10;;;17.80;63.40;;;;;;5091072;28;20212;-94
2023/03/23 10:30:02;;;;;;;44.63;6.77;;;17.80;63.50;;;;;;5083671;28;20203;-94
2023/03/23 10:32:43;;;;;;;46.57;6.87;;;17.90;63.60;;;;;;5080481;28;20199;-94
2023/03/23 10:35:16;;;;;;;33.13;5.63;;;17.80;63.50;;;;;;5090966;28;20802;-94
2023/03/23 10:37:48;;;;;;;37.50;6.27;;;17.80;63.50;;;;;;5088480;28;20219;-94
2023/03/23 10:40:19;;;;;;;31.93;5.47;;;17.80;63.50;;;;;;5088755;28;20238;-95
2023/03/23 10:42:47;;;;;;;40.80;6.33;;;17.90;63.60;;;;;;5092249;28;20292;-94
2023/03/23 10:45:21;;;;;;;37.87;5.90;;;17.90;63.60;;;;;;5112344;28;20242;-95
2023/03/23 10:47:59;;;;;;;40.30;6.70;;;17.90;63.80;;;;;;5073149;28;20298;-94
2023/03/23 10:50:30;;;;;;;30.87;5.87;;;17.90;63.80;;;;;;5071173;28;20210;-94
2023/03/23 10:52:59;;;;;;;34.07;6.00;;;17.90;63.80;;;;;;5071875;28;20237;-94
2023/03/23 10:55:38;;;;;;;37.77;6.23;;;18.00;63.80;;;;;;5095368;28;20219;-93
2023/03/23 10:58:07;;;;;;;35.20;6.73;;;17.90;63.80;;;;;;5107555;28;20684;-93
2023/03/23 11:00:46;;;;;;;31.47;6.13;;;18.00;63.80;;;;;;5093171;28;20206;-95
2023/03/23 11:06:25;;;;;;;34.43;6.23;;;18.00;64.00;;;;;;5070522;28;20293;-94
2023/03/23 11:08:56;;;;;;;33.03;5.83;;;17.90;63.70;;;;;;5071613;28;20579;-95
2023/03/23 11:11:29;;;;;;;34.40;6.00;;;18.00;63.80;;;;;;5072194;28;20540;-94
2023/03/23 11:14:01;;;;;;;29.50;5.80;;;18.10;63.90;;;;;;5071384;28;20241;-95
2023/03/23 11:16:31;;;;;;;41.20;6.53;;;18.10;64.00;;;;;;5078049;28;20206;-94
2023/03/23 11:18:59;;;;;;;40.07;6.67;;;18.10;63.90;;;;;;5090890;28;20570;-95
2023/03/23 11:21:40;;;;;;;64.13;8.40;;;18.00;63.80;;;;;;5089855;28;20570;-94
2023/03/23 11:24:10;;;;;;;42.10;6.23;;;18.10;64.00;;;;;;5089326;28;20276;-94
2023/03/23 11:26:39;;;;;;;40.27;6.73;;;18.10;63.90;;;;;;5089624;28;20213;-94
2023/03/23 11:29:11;;;;;;;42.40;6.73;;;18.10;63.90;;;;;;5089929;28;20210;-94
2023/03/23 11:31:44;;;;;;;42.53;7.10;;;18.20;64.00;;;;;;5088194;28;20717;-94
2023/03/23 11:34:16;;;;;;;48.30;7.70;;;18.10;63.90;;;;;;5090485;28;20206;-94
2023/03/23 11:39:34;;;;;;;44.93;7.43;;;18.20;64.10;;;;;;5080456;28;20231;-93
2023/03/23 11:42:12;;;;;;;55.53;8.20;;;18.20;63.80;;;;;;5089421;28;20698;-95
2023/03/23 11:44:44;;;;;;;44.20;7.10;;;18.20;63.90;;;;;;5089824;28;20202;-94
2023/03/23 11:47:21;;;;;;;40.43;6.60;;;18.20;63.80;;;;;;5084236;28;20650;-94
2023/03/23 11:49:56;;;;;;;39.80;6.73;;;18.20;63.80;;;;;;5090162;28;20844;-94
2023/03/23 11:52:34;;;;;;;33.37;6.53;;;18.20;63.80;;;;;;5085254;28;20201;-94
2023/03/23 11:55:18;;;;;;;111.07;12.10;;;18.30;64.00;;;;;;5083809;28;20913;-94
2023/03/23 11:57:45;;;;;;;33.27;5.93;;;18.30;64.00;;;;;;5088577;28;20255;-93
2023/03/23 12:00:18;;;;;;;47.43;6.70;;;18.30;63.90;;;;;;5088751;28;20329;-94
2023/03/23 12:03:09;;;;;;;47.27;6.90;;;18.30;63.90;;;;;;5089351;28;20263;-94
2023/03/23 12:05:48;;;;;;;32.10;6.00;;;18.30;63.90;;;;;;5089190;28;20236;-94
2023/03/23 12:08:40;;;;;;;43.30;6.77;;;18.40;64.10;;;;;;5088844;28;20221;-94
2023/03/23 12:11:34;;;;;;;38.57;6.17;;;18.30;63.90;;;;;;5082773;28;20214;-94
2023/03/23 12:14:12;;;;;;;38.33;6.30;;;18.30;64.00;;;;;;5089386;28;20225;-94
2023/03/23 12:17:02;;;;;;;38.30;6.30;;;18.30;63.90;;;;;;5088642;28;20212;-94
2023/03/23 12:19:43;;;;;;;53.80;6.83;;;18.30;63.90;;;;;;5068782;28;20238;-94
2023/03/23 12:22:21;;;;;;;44.17;7.27;;;18.40;64.10;;;;;;5087615;28;20218;-95
2023/03/23 12:25:03;;;;;;;42.73;6.73;;;18.40;64.00;;;;;;5086420;28;20321;-94
2023/03/23 12:27:36;;;;;;;27.33;5.70;;;18.40;64.00;;;;;;5088405;28;20198;-95
2023/03/23 12:30:17;;;;;;;42.37;6.57;;;18.40;64.00;;;;;;5088766;28;20289;-94
2023/03/23 12:32:58;;;;;;;49.03;7.17;;;18.40;64.00;;;;;;5084103;28;20237;-94
2023/03/23 12:36:01;;;;;;;67.03;8.47;;;18.40;64.00;;;;;;5087455;28;20852;-93
2023/03/23 12:38:49;;;;;;;35.67;6.20;;;18.30;64.00;;;;;;5087065;28;20290;-94
2023/03/23 12:41:22;;;;;;;35.63;5.83;;;18.50;64.10;;;;;;5088487;28;20625;-94
2023/03/23 12:43:54;;;;;;;40.67;6.20;;;18.50;64.10;;;;;;5100807;28;20243;-95
2023/03/23 12:47:08;;;;;;;29.13;5.07;;;18.50;64.10;;;;;;5109791;28;20198;-94
2023/03/23 12:49:39;;;;;;;29.27;5.37;;;18.50;64.20;;;;;;5069318;28;20229;-94
2023/03/23 12:52:18;;;;;;;74.73;9.60;;;18.50;64.20;;;;;;5068679;28;20211;-94
2023/03/23 12:54:52;;;;;;;27.30;5.63;;;18.50;64.10;;;;;;5075464;28;20216;-94
2023/03/23 12:57:27;;;;;;;30.30;5.90;;;18.50;64.10;;;;;;5088859;28;20289;-94
2023/03/23 12:59:58;;;;;;;36.40;6.33;;;18.50;64.10;;;;;;5090661;28;20226;-94
2023/03/23 13:02:28;;;;;;;38.40;6.23;;;18.50;64.10;;;;;;5086953;28;20221;-95
2023/03/23 13:05:01;;;;;;;50.87;7.60;;;18.50;64.10;;;;;;5088135;28;20216;-94
2023/03/23 13:07:36;;;;;;;33.27;6.00;;;18.60;64.20;;;;;;5088050;28;20869;-94
2023/03/23 13:10:08;;;;;;;58.60;8.13;;;18.60;64.20;;;;;;5087782;28;20210;-94
2023/03/23 13:12:39;;;;;;;28.57;5.63;;;18.60;64.20;;;;;;5088982;28;20202;-94